Terminal Aerodrome Forecast
Issued by NWS

Home | Current Version | Previous Version | Text Only | Print | Product List | Glossary On
Versions: 1 2 3 4 5 6 7 8 9 10 11 12 13 14 15 16 17 18 19 20 21
000
FTUS43 KDLH 030539
TAFBRD
TAF
KBRD 030539Z 0306/0406 12003KT 5SM BR SKC
      TEMPO 0307/0309 3SM BR BKN015
     FM030900 10003KT 1/2SM FG OVC006
     FM031500 12008G16KT P6SM SKC
     FM040000 10004KT P6SM SKC
     FM040500 10003KT 5SM BR SCT015=

USA.gov is the U.S. government's official web portal to all federal, state and local government web resources and services.